sensor_id;sensor_type;location;lat;lon;timestamp;P1;durP1;ratioP1;P2;durP2;ratioP2
11255;SDS011;5685;52.384;13.420;2022-11-14T00:02:28;21.60;;;19.30;;
11255;SDS011;5685;52.384;13.420;2022-11-14T00:05:31;23.40;;;19.60;;
11255;SDS011;5685;52.384;13.420;2022-11-14T00:08:34;21.77;;;19.30;;
11255;SDS011;5685;52.384;13.420;2022-11-14T00:11:36;21.97;;;19.27;;
11255;SDS011;5685;52.384;13.420;2022-11-14T00:14:39;20.27;;;18.27;;
11255;SDS011;5685;52.384;13.420;2022-11-14T00:17:43;20.63;;;18.43;;
11255;SDS011;5685;52.384;13.420;2022-11-14T00:20:46;22.43;;;19.10;;
11255;SDS011;5685;52.384;13.420;2022-11-14T00:23:48;25.03;;;19.37;;
11255;SDS011;5685;52.384;13.420;2022-11-14T00:26:51;22.73;;;19.60;;
11255;SDS011;5685;52.384;13.420;2022-11-14T00:29:53;22.80;;;19.93;;
11255;SDS011;5685;52.384;13.420;2022-11-14T00:32:57;22.27;;;19.87;;
11255;SDS011;5685;52.384;13.420;2022-11-14T00:35:59;24.73;;;19.60;;
11255;SDS011;5685;52.384;13.420;2022-11-14T00:39:01;24.13;;;20.40;;
11255;SDS011;5685;52.384;13.420;2022-11-14T00:42:04;22.03;;;19.37;;
11255;SDS011;5685;52.384;13.420;2022-11-14T00:45:07;22.33;;;19.90;;
11255;SDS011;5685;52.384;13.420;2022-11-14T00:48:12;23.10;;;20.27;;
11255;SDS011;5685;52.384;13.420;2022-11-14T00:51:15;22.27;;;19.60;;
11255;SDS011;5685;52.384;13.420;2022-11-14T00:54:17;21.67;;;19.33;;
11255;SDS011;5685;52.384;13.420;2022-11-14T00:57:20;20.93;;;18.57;;
11255;SDS011;5685;52.384;13.420;2022-11-14T01:00:22;20.37;;;18.17;;
11255;SDS011;5685;52.384;13.420;2022-11-14T01:03:26;20.33;;;18.23;;
11255;SDS011;5685;52.384;13.420;2022-11-14T01:06:28;24.67;;;20.07;;
11255;SDS011;5685;52.384;13.420;2022-11-14T01:09:31;21.77;;;19.07;;
11255;SDS011;5685;52.384;13.420;2022-11-14T01:12:33;21.80;;;19.50;;
11255;SDS011;5685;52.384;13.420;2022-11-14T01:15:37;21.57;;;19.40;;
11255;SDS011;5685;52.384;13.420;2022-11-14T01:18:42;23.00;;;19.80;;
11255;SDS011;5685;52.384;13.420;2022-11-14T01:21:44;26.00;;;20.23;;
11255;SDS011;5685;52.384;13.420;2022-11-14T01:24:46;23.63;;;20.40;;
11255;SDS011;5685;52.384;13.420;2022-11-14T01:27:48;23.10;;;19.50;;
11255;SDS011;5685;52.384;13.420;2022-11-14T01:30:51;22.03;;;19.43;;
11255;SDS011;5685;52.384;13.420;2022-11-14T01:33:55;24.47;;;20.23;;
11255;SDS011;5685;52.384;13.420;2022-11-14T01:36:57;23.00;;;19.50;;
11255;SDS011;5685;52.384;13.420;2022-11-14T01:40:00;23.13;;;19.90;;
11255;SDS011;5685;52.384;13.420;2022-11-14T01:43:19;27.27;;;21.13;;
11255;SDS011;5685;52.384;13.420;2022-11-14T01:46:29;23.43;;;20.70;;
11255;SDS011;5685;52.384;13.420;2022-11-14T01:49:37;26.23;;;20.57;;
11255;SDS011;5685;52.384;13.420;2022-11-14T01:52:42;23.77;;;20.17;;
11255;SDS011;5685;52.384;13.420;2022-11-14T01:55:45;23.13;;;20.57;;
11255;SDS011;5685;52.384;13.420;2022-11-14T01:58:49;25.17;;;19.73;;
11255;SDS011;5685;52.384;13.420;2022-11-14T02:01:56;23.47;;;18.47;;
11255;SDS011;5685;52.384;13.420;2022-11-14T02:05:07;24.50;;;21.17;;
11255;SDS011;5685;52.384;13.420;2022-11-14T02:08:14;23.80;;;20.43;;
11255;SDS011;5685;52.384;13.420;2022-11-14T02:11:17;23.97;;;20.07;;
11255;SDS011;5685;52.384;13.420;2022-11-14T02:14:19;24.67;;;20.10;;
11255;SDS011;5685;52.384;13.420;2022-11-14T02:17:22;22.27;;;19.13;;
11255;SDS011;5685;52.384;13.420;2022-11-14T02:20:27;25.17;;;20.57;;
11255;SDS011;5685;52.384;13.420;2022-11-14T02:23:32;28.53;;;19.60;;
11255;SDS011;5685;52.384;13.420;2022-11-14T02:26:35;26.53;;;21.53;;
11255;SDS011;5685;52.384;13.420;2022-11-14T02:29:38;24.03;;;20.37;;
11255;SDS011;5685;52.384;13.420;2022-11-14T02:32:41;23.70;;;20.73;;
11255;SDS011;5685;52.384;13.420;2022-11-14T02:35:45;24.93;;;20.43;;
11255;SDS011;5685;52.384;13.420;2022-11-14T02:38:48;24.90;;;20.30;;
11255;SDS011;5685;52.384;13.420;2022-11-14T02:41:50;28.20;;;21.03;;
11255;SDS011;5685;52.384;13.420;2022-11-14T02:44:53;24.53;;;20.63;;
11255;SDS011;5685;52.384;13.420;2022-11-14T02:47:56;25.33;;;20.47;;
11255;SDS011;5685;52.384;13.420;2022-11-14T02:50:59;22.07;;;19.37;;
11255;SDS011;5685;52.384;13.420;2022-11-14T02:54:02;26.30;;;20.43;;
11255;SDS011;5685;52.384;13.420;2022-11-14T02:57:05;24.90;;;19.77;;
11255;SDS011;5685;52.384;13.420;2022-11-14T03:00:07;24.90;;;20.37;;
11255;SDS011;5685;52.384;13.420;2022-11-14T03:03:11;26.50;;;20.17;;
11255;SDS011;5685;52.384;13.420;2022-11-14T03:06:15;26.17;;;20.50;;
11255;SDS011;5685;52.384;13.420;2022-11-14T03:09:17;22.97;;;19.73;;
11255;SDS011;5685;52.384;13.420;2022-11-14T03:12:19;30.00;;;20.93;;
11255;SDS011;5685;52.384;13.420;2022-11-14T03:15:22;26.17;;;21.30;;
11255;SDS011;5685;52.384;13.420;2022-11-14T03:18:24;27.37;;;20.97;;
11255;SDS011;5685;52.384;13.420;2022-11-14T03:21:28;28.67;;;21.27;;
11255;SDS011;5685;52.384;13.420;2022-11-14T03:24:31;24.80;;;20.30;;
11255;SDS011;5685;52.384;13.420;2022-11-14T03:27:34;25.03;;;21.03;;
11255;SDS011;5685;52.384;13.420;2022-11-14T03:30:36;28.00;;;20.93;;
11255;SDS011;5685;52.384;13.420;2022-11-14T03:33:38;25.53;;;20.43;;
11255;SDS011;5685;52.384;13.420;2022-11-14T03:36:42;22.40;;;19.47;;
11255;SDS011;5685;52.384;13.420;2022-11-14T03:39:45;27.43;;;21.53;;
11255;SDS011;5685;52.384;13.420;2022-11-14T03:42:47;26.00;;;19.87;;
11255;SDS011;5685;52.384;13.420;2022-11-14T03:45:49;25.90;;;20.13;;
11255;SDS011;5685;52.384;13.420;2022-11-14T03:48:52;23.90;;;19.63;;
11255;SDS011;5685;52.384;13.420;2022-11-14T03:51:56;26.13;;;21.10;;
11255;SDS011;5685;52.384;13.420;2022-11-14T03:54:58;25.90;;;19.97;;
11255;SDS011;5685;52.384;13.420;2022-11-14T03:58:01;25.40;;;20.53;;
11255;SDS011;5685;52.384;13.420;2022-11-14T04:01:03;24.37;;;19.93;;
11255;SDS011;5685;52.384;13.420;2022-11-14T04:04:05;24.23;;;20.00;;
11255;SDS011;5685;52.384;13.420;2022-11-14T04:07:09;27.47;;;19.77;;
11255;SDS011;5685;52.384;13.420;2022-11-14T04:10:11;24.53;;;20.07;;
11255;SDS011;5685;52.384;13.420;2022-11-14T04:13:14;27.87;;;20.57;;
11255;SDS011;5685;52.384;13.420;2022-11-14T04:16:17;23.83;;;20.13;;
11255;SDS011;5685;52.384;13.420;2022-11-14T04:19:19;26.63;;;20.87;;
11255;SDS011;5685;52.384;13.420;2022-11-14T04:22:23;28.00;;;22.17;;
11255;SDS011;5685;52.384;13.420;2022-11-14T04:25:25;28.77;;;21.20;;
11255;SDS011;5685;52.384;13.420;2022-11-14T04:28:27;27.00;;;20.80;;
11255;SDS011;5685;52.384;13.420;2022-11-14T04:31:55;26.03;;;20.70;;
11255;SDS011;5685;52.384;13.420;2022-11-14T04:34:57;26.97;;;20.83;;
11255;SDS011;5685;52.384;13.420;2022-11-14T04:38:01;26.97;;;20.50;;
11255;SDS011;5685;52.384;13.420;2022-11-14T04:41:04;27.03;;;20.47;;
11255;SDS011;5685;52.384;13.420;2022-11-14T04:44:07;26.90;;;20.13;;
11255;SDS011;5685;52.384;13.420;2022-11-14T04:47:09;26.10;;;19.73;;
11255;SDS011;5685;52.384;13.420;2022-11-14T04:50:11;27.27;;;20.40;;
11255;SDS011;5685;52.384;13.420;2022-11-14T04:53:15;25.30;;;20.33;;
11255;SDS011;5685;52.384;13.420;2022-11-14T04:56:18;26.73;;;20.80;;
11255;SDS011;5685;52.384;13.420;2022-11-14T04:59:22;28.43;;;20.17;;
11255;SDS011;5685;52.384;13.420;2022-11-14T05:02:25;27.43;;;21.37;;
11255;SDS011;5685;52.384;13.420;2022-11-14T05:05:27;27.03;;;21.27;;
11255;SDS011;5685;52.384;13.420;2022-11-14T05:08:31;23.57;;;19.20;;
11255;SDS011;5685;52.384;13.420;2022-11-14T05:11:34;26.53;;;19.90;;
11255;SDS011;5685;52.384;13.420;2022-11-14T05:14:36;26.63;;;21.03;;
11255;SDS011;5685;52.384;13.420;2022-11-14T05:17:38;30.43;;;20.70;;
11255;SDS011;5685;52.384;13.420;2022-11-14T05:20:41;25.97;;;20.00;;
11255;SDS011;5685;52.384;13.420;2022-11-14T05:23:45;29.50;;;20.37;;
11255;SDS011;5685;52.384;13.420;2022-11-14T05:26:47;25.20;;;20.33;;
11255;SDS011;5685;52.384;13.420;2022-11-14T05:29:49;26.23;;;20.23;;
11255;SDS011;5685;52.384;13.420;2022-11-14T05:32:52;27.03;;;19.90;;
11255;SDS011;5685;52.384;13.420;2022-11-14T05:35:54;27.07;;;20.37;;
11255;SDS011;5685;52.384;13.420;2022-11-14T05:38:58;23.73;;;19.50;;
11255;SDS011;5685;52.384;13.420;2022-11-14T05:42:25;32.97;;;21.33;;
11255;SDS011;5685;52.384;13.420;2022-11-14T05:45:52;25.43;;;20.13;;
11255;SDS011;5685;52.384;13.420;2022-11-14T05:49:23;29.67;;;21.47;;
11255;SDS011;5685;52.384;13.420;2022-11-14T05:52:49;27.10;;;21.00;;
11255;SDS011;5685;52.384;13.420;2022-11-14T05:56:17;28.67;;;21.17;;
11255;SDS011;5685;52.384;13.420;2022-11-14T05:59:43;25.80;;;20.40;;
11255;SDS011;5685;52.384;13.420;2022-11-14T06:03:10;29.97;;;20.43;;
11255;SDS011;5685;52.384;13.420;2022-11-14T06:06:36;29.40;;;21.13;;
11255;SDS011;5685;52.384;13.420;2022-11-14T06:10:03;25.27;;;20.33;;
11255;SDS011;5685;52.384;13.420;2022-11-14T06:13:31;26.30;;;19.90;;
11255;SDS011;5685;52.384;13.420;2022-11-14T06:16:58;26.40;;;19.43;;
11255;SDS011;5685;52.384;13.420;2022-11-14T06:20:24;30.80;;;21.50;;
11255;SDS011;5685;52.384;13.420;2022-11-14T06:23:50;28.83;;;21.20;;
11255;SDS011;5685;52.384;13.420;2022-11-14T06:27:16;26.93;;;19.57;;
11255;SDS011;5685;52.384;13.420;2022-11-14T06:30:44;24.37;;;20.07;;
11255;SDS011;5685;52.384;13.420;2022-11-14T06:34:10;27.63;;;19.43;;
11255;SDS011;5685;52.384;13.420;2022-11-14T06:37:36;29.73;;;21.63;;
11255;SDS011;5685;52.384;13.420;2022-11-14T06:41:03;25.70;;;20.23;;
11255;SDS011;5685;52.384;13.420;2022-11-14T06:44:30;30.00;;;20.60;;
11255;SDS011;5685;52.384;13.420;2022-11-14T06:47:58;34.37;;;21.87;;
11255;SDS011;5685;52.384;13.420;2022-11-14T14:12:42;12.83;;;11.50;;
11255;SDS011;5685;52.384;13.420;2022-11-14T14:16:02;13.30;;;12.00;;
11255;SDS011;5685;52.384;13.420;2022-11-14T14:19:11;12.70;;;11.53;;
11255;SDS011;5685;52.384;13.420;2022-11-14T14:22:24;12.97;;;11.67;;
11255;SDS011;5685;52.384;13.420;2022-11-14T14:25:37;11.60;;;10.60;;
11255;SDS011;5685;52.384;13.420;2022-11-14T14:28:50;12.70;;;11.53;;
11255;SDS011;5685;52.384;13.420;2022-11-14T14:32:04;12.43;;;11.23;;
11255;SDS011;5685;52.384;13.420;2022-11-14T14:35:21;12.43;;;11.23;;
11255;SDS011;5685;52.384;13.420;2022-11-14T14:38:26;12.80;;;11.53;;
11255;SDS011;5685;52.384;13.420;2022-11-14T14:41:29;12.57;;;11.30;;
11255;SDS011;5685;52.384;13.420;2022-11-14T14:44:35;13.07;;;11.87;;
11255;SDS011;5685;52.384;13.420;2022-11-14T14:47:40;11.77;;;10.67;;
11255;SDS011;5685;52.384;13.420;2022-11-14T14:50:47;11.60;;;10.53;;
11255;SDS011;5685;52.384;13.420;2022-11-14T14:53:52;12.23;;;11.13;;
11255;SDS011;5685;52.384;13.420;2022-11-14T14:56:55;12.03;;;10.83;;
11255;SDS011;5685;52.384;13.420;2022-11-14T15:00:03;11.77;;;10.73;;
11255;SDS011;5685;52.384;13.420;2022-11-14T15:03:08;12.60;;;11.30;;
11255;SDS011;5685;52.384;13.420;2022-11-14T15:06:17;11.67;;;10.57;;
11255;SDS011;5685;52.384;13.420;2022-11-14T15:09:30;11.80;;;10.70;;
11255;SDS011;5685;52.384;13.420;2022-11-14T15:12:32;11.47;;;10.47;;
11255;SDS011;5685;52.384;13.420;2022-11-14T15:15:36;11.40;;;10.40;;
11255;SDS011;5685;52.384;13.420;2022-11-14T15:18:39;12.10;;;11.00;;
11255;SDS011;5685;52.384;13.420;2022-11-14T15:21:42;11.63;;;10.60;;
11255;SDS011;5685;52.384;13.420;2022-11-14T15:24:45;11.10;;;10.20;;
11255;SDS011;5685;52.384;13.420;2022-11-14T15:28:18;11.87;;;10.83;;
11255;SDS011;5685;52.384;13.420;2022-11-14T15:31:23;11.33;;;10.43;;
11255;SDS011;5685;52.384;13.420;2022-11-14T15:34:26;11.20;;;10.30;;
11255;SDS011;5685;52.384;13.420;2022-11-14T15:37:30;11.10;;;10.00;;
11255;SDS011;5685;52.384;13.420;2022-11-14T15:40:33;10.77;;;9.83;;
11255;SDS011;5685;52.384;13.420;2022-11-14T15:43:45;11.60;;;10.60;;
11255;SDS011;5685;52.384;13.420;2022-11-14T15:46:51;12.10;;;10.93;;
11255;SDS011;5685;52.384;13.420;2022-11-14T15:49:58;11.30;;;10.37;;
11255;SDS011;5685;52.384;13.420;2022-11-14T15:53:02;11.73;;;10.73;;
11255;SDS011;5685;52.384;13.420;2022-11-14T15:56:08;11.67;;;10.67;;
11255;SDS011;5685;52.384;13.420;2022-11-14T15:59:13;11.30;;;10.40;;
11255;SDS011;5685;52.384;13.420;2022-11-14T16:02:17;12.43;;;11.27;;
11255;SDS011;5685;52.384;13.420;2022-11-14T16:05:24;12.10;;;10.90;;
11255;SDS011;5685;52.384;13.420;2022-11-14T16:08:29;11.40;;;10.50;;
11255;SDS011;5685;52.384;13.420;2022-11-14T16:11:31;13.47;;;11.03;;
11255;SDS011;5685;52.384;13.420;2022-11-14T16:14:33;11.30;;;10.30;;
11255;SDS011;5685;52.384;13.420;2022-11-14T16:17:38;11.80;;;10.70;;
11255;SDS011;5685;52.384;13.420;2022-11-14T16:20:42;12.17;;;10.97;;
11255;SDS011;5685;52.384;13.420;2022-11-14T16:23:44;11.40;;;10.40;;
11255;SDS011;5685;52.384;13.420;2022-11-14T16:26:49;12.03;;;11.00;;
11255;SDS011;5685;52.384;13.420;2022-11-14T16:29:51;12.00;;;10.90;;
11255;SDS011;5685;52.384;13.420;2022-11-14T16:32:55;12.30;;;10.93;;
11255;SDS011;5685;52.384;13.420;2022-11-14T16:35:58;13.30;;;12.07;;
11255;SDS011;5685;52.384;13.420;2022-11-14T16:39:01;12.07;;;10.93;;
11255;SDS011;5685;52.384;13.420;2022-11-14T16:42:10;12.67;;;11.43;;
11255;SDS011;5685;52.384;13.420;2022-11-14T16:45:12;13.07;;;11.87;;
11255;SDS011;5685;52.384;13.420;2022-11-14T16:48:16;11.13;;;10.20;;
11255;SDS011;5685;52.384;13.420;2022-11-14T16:51:19;11.40;;;10.43;;
11255;SDS011;5685;52.384;13.420;2022-11-14T16:54:21;11.60;;;10.60;;
11255;SDS011;5685;52.384;13.420;2022-11-14T16:57:23;12.90;;;11.70;;
11255;SDS011;5685;52.384;13.420;2022-11-14T17:00:26;10.87;;;9.97;;
11255;SDS011;5685;52.384;13.420;2022-11-14T17:03:31;12.13;;;11.13;;
11255;SDS011;5685;52.384;13.420;2022-11-14T17:06:33;12.40;;;11.20;;
11255;SDS011;5685;52.384;13.420;2022-11-14T17:09:36;11.83;;;10.83;;
11255;SDS011;5685;52.384;13.420;2022-11-14T17:12:38;12.30;;;11.20;;
11255;SDS011;5685;52.384;13.420;2022-11-14T17:15:40;13.07;;;11.67;;
11255;SDS011;5685;52.384;13.420;2022-11-14T17:18:48;17.13;;;11.73;;
11255;SDS011;5685;52.384;13.420;2022-11-14T17:21:52;13.20;;;11.90;;
11255;SDS011;5685;52.384;13.420;2022-11-14T17:24:55;15.90;;;12.47;;
11255;SDS011;5685;52.384;13.420;2022-11-14T17:27:57;19.13;;;13.73;;
11255;SDS011;5685;52.384;13.420;2022-11-14T17:31:04;20.90;;;14.07;;
11255;SDS011;5685;52.384;13.420;2022-11-14T17:34:09;27.30;;;15.50;;
11255;SDS011;5685;52.384;13.420;2022-11-14T17:37:12;40.20;;;16.00;;
11255;SDS011;5685;52.384;13.420;2022-11-14T17:40:14;39.37;;;17.37;;
11255;SDS011;5685;52.384;13.420;2022-11-14T17:43:17;31.17;;;17.10;;
11255;SDS011;5685;52.384;13.420;2022-11-14T17:46:19;44.20;;;18.67;;
11255;SDS011;5685;52.384;13.420;2022-11-14T17:49:23;52.17;;;18.77;;
11255;SDS011;5685;52.384;13.420;2022-11-14T17:52:26;53.50;;;22.60;;
11255;SDS011;5685;52.384;13.420;2022-11-14T17:55:28;48.40;;;20.20;;
11255;SDS011;5685;52.384;13.420;2022-11-14T17:58:30;50.07;;;19.17;;
11255;SDS011;5685;52.384;13.420;2022-11-14T18:01:32;58.13;;;20.13;;
11255;SDS011;5685;52.384;13.420;2022-11-14T18:04:36;60.90;;;21.43;;
11255;SDS011;5685;52.384;13.420;2022-11-14T18:07:38;41.93;;;18.13;;
11255;SDS011;5685;52.384;13.420;2022-11-14T18:10:41;55.90;;;20.80;;
11255;SDS011;5685;52.384;13.420;2022-11-14T18:13:43;44.17;;;19.83;;
11255;SDS011;5685;52.384;13.420;2022-11-14T18:16:45;47.93;;;18.27;;
11255;SDS011;5685;52.384;13.420;2022-11-14T18:19:49;41.23;;;18.10;;
11255;SDS011;5685;52.384;13.420;2022-11-14T18:22:52;52.03;;;20.57;;
11255;SDS011;5685;52.384;13.420;2022-11-14T18:25:54;44.17;;;18.73;;
11255;SDS011;5685;52.384;13.420;2022-11-14T18:28:57;40.03;;;17.90;;
11255;SDS011;5685;52.384;13.420;2022-11-14T18:32:01;50.47;;;20.77;;
11255;SDS011;5685;52.384;13.420;2022-11-14T18:35:05;32.27;;;16.73;;
11255;SDS011;5685;52.384;13.420;2022-11-14T18:38:09;48.57;;;19.97;;
11255;SDS011;5685;52.384;13.420;2022-11-14T18:41:12;36.23;;;17.33;;
11255;SDS011;5685;52.384;13.420;2022-11-14T18:44:17;35.23;;;18.60;;
11255;SDS011;5685;52.384;13.420;2022-11-14T18:47:20;34.30;;;17.60;;
11255;SDS011;5685;52.384;13.420;2022-11-14T18:50:23;33.60;;;17.00;;
11255;SDS011;5685;52.384;13.420;2022-11-14T18:53:28;32.10;;;17.13;;
11255;SDS011;5685;52.384;13.420;2022-11-14T18:56:32;33.80;;;16.33;;
11255;SDS011;5685;52.384;13.420;2022-11-14T18:59:34;41.87;;;18.97;;
11255;SDS011;5685;52.384;13.420;2022-11-14T19:02:36;25.37;;;16.13;;
11255;SDS011;5685;52.384;13.420;2022-11-14T19:05:40;26.87;;;15.83;;
11255;SDS011;5685;52.384;13.420;2022-11-14T19:08:42;24.90;;;14.73;;
11255;SDS011;5685;52.384;13.420;2022-11-14T19:11:45;34.27;;;17.53;;
11255;SDS011;5685;52.384;13.420;2022-11-14T19:15:04;31.27;;;16.50;;
11255;SDS011;5685;52.384;13.420;2022-11-14T19:18:08;28.47;;;15.63;;
11255;SDS011;5685;52.384;13.420;2022-11-14T19:21:12;28.83;;;15.57;;
11255;SDS011;5685;52.384;13.420;2022-11-14T19:24:14;22.37;;;14.90;;
11255;SDS011;5685;52.384;13.420;2022-11-14T19:27:17;33.00;;;16.77;;
11255;SDS011;5685;52.384;13.420;2022-11-14T19:30:21;20.93;;;14.90;;
11255;SDS011;5685;52.384;13.420;2022-11-14T19:33:23;25.27;;;15.70;;
11255;SDS011;5685;52.384;13.420;2022-11-14T19:36:27;18.60;;;13.20;;
11255;SDS011;5685;52.384;13.420;2022-11-14T19:39:29;25.60;;;15.63;;
11255;SDS011;5685;52.384;13.420;2022-11-14T19:42:31;17.80;;;14.07;;
11255;SDS011;5685;52.384;13.420;2022-11-14T19:45:34;20.40;;;14.87;;
11255;SDS011;5685;52.384;13.420;2022-11-14T19:48:37;19.43;;;14.53;;
11255;SDS011;5685;52.384;13.420;2022-11-14T19:51:42;21.90;;;14.77;;
11255;SDS011;5685;52.384;13.420;2022-11-14T19:54:45;21.53;;;14.60;;
11255;SDS011;5685;52.384;13.420;2022-11-14T19:57:48;20.40;;;14.27;;
11255;SDS011;5685;52.384;13.420;2022-11-14T20:00:50;18.40;;;15.23;;
11255;SDS011;5685;52.384;13.420;2022-11-14T20:03:53;22.43;;;14.63;;
11255;SDS011;5685;52.384;13.420;2022-11-14T20:06:58;24.20;;;14.40;;
11255;SDS011;5685;52.384;13.420;2022-11-14T20:10:01;16.87;;;13.00;;
11255;SDS011;5685;52.384;13.420;2022-11-14T20:13:05;16.27;;;13.07;;
11255;SDS011;5685;52.384;13.420;2022-11-14T20:16:08;20.37;;;13.97;;
11255;SDS011;5685;52.384;13.420;2022-11-14T20:19:11;19.60;;;13.63;;
11255;SDS011;5685;52.384;13.420;2022-11-14T20:22:15;20.10;;;13.67;;
11255;SDS011;5685;52.384;13.420;2022-11-14T20:25:17;18.73;;;13.23;;
11255;SDS011;5685;52.384;13.420;2022-11-14T20:28:20;14.87;;;12.43;;
11255;SDS011;5685;52.384;13.420;2022-11-14T20:31:23;15.37;;;12.63;;
11255;SDS011;5685;52.384;13.420;2022-11-14T20:34:28;15.07;;;12.87;;
11255;SDS011;5685;52.384;13.420;2022-11-14T20:37:31;15.03;;;13.53;;
11255;SDS011;5685;52.384;13.420;2022-11-14T20:40:34;15.97;;;13.10;;
11255;SDS011;5685;52.384;13.420;2022-11-14T20:43:36;14.57;;;13.03;;
11255;SDS011;5685;52.384;13.420;2022-11-14T20:46:39;15.43;;;13.00;;
11255;SDS011;5685;52.384;13.420;2022-11-14T20:49:42;15.20;;;12.67;;
11255;SDS011;5685;52.384;13.420;2022-11-14T20:52:47;16.77;;;12.53;;
11255;SDS011;5685;52.384;13.420;2022-11-14T20:55:52;14.87;;;12.67;;
11255;SDS011;5685;52.384;13.420;2022-11-14T20:58:55;16.30;;;13.40;;
11255;SDS011;5685;52.384;13.420;2022-11-14T21:01:57;16.07;;;13.37;;
11255;SDS011;5685;52.384;13.420;2022-11-14T21:05:00;16.57;;;12.63;;
11255;SDS011;5685;52.384;13.420;2022-11-14T21:08:04;15.80;;;12.50;;
11255;SDS011;5685;52.384;13.420;2022-11-14T21:11:07;13.97;;;12.30;;
11255;SDS011;5685;52.384;13.420;2022-11-14T21:14:13;14.13;;;12.63;;
11255;SDS011;5685;52.384;13.420;2022-11-14T21:17:15;12.90;;;11.63;;
11255;SDS011;5685;52.384;13.420;2022-11-14T21:20:18;15.80;;;12.80;;
11255;SDS011;5685;52.384;13.420;2022-11-14T21:23:21;14.30;;;12.80;;
11255;SDS011;5685;52.384;13.420;2022-11-14T21:26:24;18.20;;;12.60;;
11255;SDS011;5685;52.384;13.420;2022-11-14T21:29:28;14.20;;;12.67;;
11255;SDS011;5685;52.384;13.420;2022-11-14T21:32:31;17.23;;;13.00;;
11255;SDS011;5685;52.384;13.420;2022-11-14T21:35:35;13.60;;;12.30;;
11255;SDS011;5685;52.384;13.420;2022-11-14T21:38:39;13.97;;;12.27;;
11255;SDS011;5685;52.384;13.420;2022-11-14T21:41:41;19.27;;;12.97;;
11255;SDS011;5685;52.384;13.420;2022-11-14T21:44:44;16.17;;;13.37;;
11255;SDS011;5685;52.384;13.420;2022-11-14T21:47:46;12.50;;;11.27;;
11255;SDS011;5685;52.384;13.420;2022-11-14T21:50:49;14.20;;;12.70;;
11255;SDS011;5685;52.384;13.420;2022-11-14T21:53:53;16.73;;;13.23;;
11255;SDS011;5685;52.384;13.420;2022-11-14T21:56:58;14.10;;;12.60;;
11255;SDS011;5685;52.384;13.420;2022-11-14T22:00:01;13.87;;;12.47;;
11255;SDS011;5685;52.384;13.420;2022-11-14T22:03:03;14.43;;;12.53;;
11255;SDS011;5685;52.384;13.420;2022-11-14T22:06:24;13.70;;;12.30;;
11255;SDS011;5685;52.384;13.420;2022-11-14T22:09:29;14.23;;;12.83;;
11255;SDS011;5685;52.384;13.420;2022-11-14T22:12:32;14.37;;;12.90;;
11255;SDS011;5685;52.384;13.420;2022-11-14T22:15:34;46.70;;;14.63;;
11255;SDS011;5685;52.384;13.420;2022-11-14T22:18:36;12.97;;;11.77;;
11255;SDS011;5685;52.384;13.420;2022-11-14T22:21:39;12.50;;;11.40;;
11255;SDS011;5685;52.384;13.420;2022-11-14T22:24:42;13.87;;;12.47;;
11255;SDS011;5685;52.384;13.420;2022-11-14T22:27:45;13.07;;;11.97;;
11255;SDS011;5685;52.384;13.420;2022-11-14T22:30:47;12.80;;;11.63;;
11255;SDS011;5685;52.384;13.420;2022-11-14T22:33:50;14.37;;;11.57;;
11255;SDS011;5685;52.384;13.420;2022-11-14T22:36:53;13.97;;;12.57;;
11255;SDS011;5685;52.384;13.420;2022-11-14T22:39:57;13.63;;;12.33;;
11255;SDS011;5685;52.384;13.420;2022-11-14T22:43:00;13.50;;;12.30;;
11255;SDS011;5685;52.384;13.420;2022-11-14T22:46:02;13.17;;;11.53;;
11255;SDS011;5685;52.384;13.420;2022-11-14T22:49:05;12.63;;;11.33;;
11255;SDS011;5685;52.384;13.420;2022-11-14T22:52:07;15.03;;;12.67;;
11255;SDS011;5685;52.384;13.420;2022-11-14T22:55:11;13.03;;;11.73;;
11255;SDS011;5685;52.384;13.420;2022-11-14T22:58:13;13.30;;;11.90;;
11255;SDS011;5685;52.384;13.420;2022-11-14T23:01:17;12.37;;;11.27;;
11255;SDS011;5685;52.384;13.420;2022-11-14T23:04:21;13.30;;;11.90;;
11255;SDS011;5685;52.384;13.420;2022-11-14T23:07:24;12.90;;;11.70;;
11255;SDS011;5685;52.384;13.420;2022-11-14T23:10:28;13.17;;;11.93;;
11255;SDS011;5685;52.384;13.420;2022-11-14T23:13:34;13.23;;;12.03;;
11255;SDS011;5685;52.384;13.420;2022-11-14T23:16:37;12.33;;;11.13;;
11255;SDS011;5685;52.384;13.420;2022-11-14T23:19:40;12.83;;;11.70;;
11255;SDS011;5685;52.384;13.420;2022-11-14T23:22:42;13.53;;;11.63;;
11255;SDS011;5685;52.384;13.420;2022-11-14T23:25:46;13.20;;;12.00;;
11255;SDS011;5685;52.384;13.420;2022-11-14T23:28:49;12.63;;;11.47;;
11255;SDS011;5685;52.384;13.420;2022-11-14T23:31:51;12.13;;;10.90;;
11255;SDS011;5685;52.384;13.420;2022-11-14T23:34:53;12.33;;;11.13;;
11255;SDS011;5685;52.384;13.420;2022-11-14T23:38:00;12.33;;;11.23;;
11255;SDS011;5685;52.384;13.420;2022-11-14T23:41:05;12.90;;;11.67;;
11255;SDS011;5685;52.384;13.420;2022-11-14T23:44:09;13.07;;;11.90;;
11255;SDS011;5685;52.384;13.420;2022-11-14T23:47:12;12.60;;;11.50;;
11255;SDS011;5685;52.384;13.420;2022-11-14T23:50:14;12.67;;;11.57;;
11255;SDS011;5685;52.384;13.420;2022-11-14T23:53:16;12.30;;;11.17;;
11255;SDS011;5685;52.384;13.420;2022-11-14T23:56:21;13.43;;;11.90;;
11255;SDS011;5685;52.384;13.420;2022-11-14T23:59:23;12.93;;;11.73;;
